Time;durP1;ratioP1;P1;durP2;ratioP2;P2;SDS_P1;SDS_P2;PMS_P1;PMS_P2;Temp;Humidity;BMP_temperature;BMP_pressure;BME280_temperature;BME280_humidity;BME280_pressure;Samples;Min_cycle;Max_cycle;Signal;HPM_P1;HPM_P2
2022/06/01 00:01:56;;;;;;;;;11.50;11.50;;;;;12.83;98.36;99452.16;6315883;20;2788847;-59
2022/06/01 00:04:28;;;;;;;;;13.60;13.60;;;;;13.23;96.93;99444.59;6308531;20;2809726;-59
2022/06/01 00:06:58;;;;;;;;;10.40;9.20;;;;;12.87;97.56;99450.94;6310812;20;2777338;-59
2022/06/01 00:09:26;;;;;;;;;13.67;12.67;;;;;12.70;98.08;99444.97;6284124;20;3515864;-60
2022/06/01 00:11:54;;;;;;;;;15.50;14.00;;;;;13.15;96.42;99447.03;6319022;20;2803509;-55
2022/06/01 00:14:23;;;;;;;;;12.00;12.00;;;;;13.10;96.23;99455.44;6286279;20;2800483;-58
2022/06/01 00:16:55;;;;;;;;;15.00;11.50;;;;;13.21;96.51;99454.63;6318507;20;2793998;-58
2022/06/01 00:19:24;;;;;;;;;10.40;10.40;;;;;13.17;95.72;99439.69;6306662;20;2790290;-59
2022/06/01 00:22:11;;;;;;;;;11.67;10.67;;;;;13.34;95.15;99430.31;6283531;20;3516430;-55
2022/06/01 00:24:41;;;;;;;;;12.00;10.00;;;;;13.23;96.39;99432.97;6320735;20;2794429;-56
2022/06/01 00:27:13;;;;;;;;;13.33;12.00;;;;;13.29;96.37;99433.34;6285855;20;2801401;-59
2022/06/01 00:29:41;;;;;;;;;12.67;11.33;;;;;13.33;96.50;99428.59;6314508;20;3517021;-54
2022/06/01 00:32:13;;;;;;;;;12.50;11.50;;;;;13.67;95.61;99432.25;6317413;20;2795081;-55
2022/06/01 00:34:43;;;;;;;;;12.33;11.00;;;;;13.53;95.20;99435.13;6284852;20;3518049;-60
2022/06/01 00:37:12;;;;;;;;;12.67;12.67;;;;;13.53;95.36;99429.75;6311222;20;2790382;-60
2022/06/01 00:39:44;;;;;;;;;17.00;15.33;;;;;13.50;96.40;99428.13;6313714;20;3554380;-53
2022/06/01 00:42:18;;;;;;;;;20.00;15.00;;;;;13.26;97.52;99428.22;6283847;20;3546069;-54
2022/06/01 00:44:49;;;;;;;;;18.67;16.33;;;;;13.07;99.21;99431.44;6284181;20;3560775;-54
2022/06/01 00:47:21;;;;;;;;;16.33;15.33;;;;;13.15;100.00;99430.84;6314793;20;3548148;-54
2022/06/01 00:50:22;;;;;;;;;15.00;15.00;;;;;12.78;100.00;99433.63;6282222;20;3528349;-58
2022/06/01 00:53:23;;;;;;;;;16.00;16.00;;;;;12.98;100.00;99428.56;6318811;20;2825276;-59
2022/06/01 00:56:07;;;;;;;;;18.00;15.00;;;;;13.07;99.89;99430.56;6313693;20;2819095;-59
2022/06/01 00:58:42;;;;;;;;;17.67;17.67;;;;;12.81;100.00;99433.38;6284832;20;2833624;-56
2022/06/01 01:01:19;;;;;;;;;19.00;16.50;;;;;12.83;100.00;99426.06;6313147;20;2825282;-59
2022/06/01 01:03:56;;;;;;;;;13.67;13.67;;;;;12.99;99.25;99430.28;6283319;20;3534735;-50
2022/06/01 01:06:36;;;;;;;;;16.00;15.50;;;;;13.23;98.18;99422.16;6281346;20;2816023;-52
2022/06/01 01:09:08;;;;;;;;;17.00;15.33;;;;;13.08;98.89;99425.03;6283872;20;3544111;-54
2022/06/01 01:11:57;;;;;;;;;14.50;14.50;;;;;13.16;98.32;99416.38;6310870;20;2492081;-60
2022/06/01 01:14:31;;;;;;;;;15.67;15.67;;;;;12.63;100.00;99418.59;6282914;20;3543072;-59
2022/06/01 01:16:59;;;;;;;;;18.00;17.50;;;;;12.66;100.00;99429.13;6313078;20;2821115;-55
2022/06/01 01:19:58;;;;;;;;;15.20;15.20;;;;;12.62;100.00;99433.06;6305299;20;2807945;-51
2022/06/01 01:22:49;;;;;;;;;18.00;16.00;;;;;13.07;99.76;99433.25;6280134;20;2487815;-52
2022/06/01 01:25:32;;;;;;;;;16.00;14.67;;;;;12.89;99.20;99428.28;6277141;20;3542967;-59
2022/06/01 01:28:05;;;;;;;;;15.67;13.33;;;;;12.95;99.07;99429.66;6310493;20;3530453;-51
2022/06/01 01:30:39;;;;;;;;;20.50;17.00;;;;;12.97;99.03;99433.09;6312370;20;2833622;-54
2022/06/01 01:33:13;;;;;;;;;16.00;14.50;;;;;12.82;99.79;99429.75;6285877;20;2808615;-51
2022/06/01 01:35:48;;;;;;;;;14.33;14.33;;;;;12.88;100.00;99429.25;6281131;20;3516884;-51
2022/06/01 01:38:40;;;;;;;;;15.00;14.00;;;;;12.95;99.61;99433.22;6278978;20;3537795;-53
2022/06/01 01:41:19;;;;;;;;;17.50;15.50;;;;;13.01;99.67;99431.06;6302595;20;2487824;-60
2022/06/01 01:44:16;;;;;;;;;18.67;18.67;;;;;13.00;99.81;99429.31;6282877;20;2834788;-52
2022/06/01 01:46:49;;;;;;;;;15.00;15.00;;;;;12.64;100.00;99425.72;6314344;20;3533947;-60
2022/06/01 01:49:22;;;;;;;;;16.00;16.00;;;;;12.63;100.00;99419.44;6313262;20;2498184;-48
2022/06/01 01:51:58;;;;;;;;;15.00;15.00;;;;;12.52;100.00;99424.78;6288615;20;2794002;-52
2022/06/01 01:55:22;;;;;;;;;15.50;14.00;;;;;12.76;100.00;99424.78;6286050;20;2798309;-48
2022/06/01 01:58:55;;;;;;;;;18.33;16.00;;;;;12.42;100.00;99424.59;6277858;20;3553359;-53
2022/06/01 02:01:59;;;;;;;;;14.50;13.00;;;;;12.22;100.00;99414.44;6284605;20;2792996;-52
2022/06/01 02:08:13;;;;;;;;;13.00;13.00;;;;;12.30;98.53;99417.44;6276337;20;3537752;-53
2022/06/01 02:13:28;;;;;;;;;16.67;13.67;;;;;12.01;99.74;99406.09;6276832;20;3547139;-60
2022/06/01 02:16:00;;;;;;;;;18.00;16.00;;;;;11.98;100.00;99407.19;6277819;20;3548823;-55
2022/06/01 02:18:39;;;;;;;;;17.00;16.00;;;;;11.85;100.00;99412.53;6280060;20;3549188;-53
2022/06/01 02:21:21;;;;;;;;;16.67;16.00;;;;;11.79;100.00;99417.47;6305937;20;3552397;-55
2022/06/01 02:23:50;;;;;;;;;13.00;13.00;;;;;12.40;99.49;99428.38;6308667;20;3516888;-59
2022/06/01 02:26:19;;;;;;;;;13.67;12.67;;;;;12.44;97.42;99429.88;6309442;20;2792091;-59
2022/06/01 02:28:55;;;;;;;;;22.33;12.67;;;;;12.63;96.08;99424.84;6308504;20;3554860;-55
2022/06/01 02:31:25;;;;;;;;;15.33;15.00;;;;;12.49;97.08;99431.25;6278011;20;3541931;-52
2022/06/01 02:33:54;;;;;;;;;16.00;15.67;;;;;12.31;98.36;99432.59;6276339;20;3542938;-53
2022/06/01 02:36:26;;;;;;;;;18.33;17.00;;;;;12.46;98.62;99434.19;6275538;20;3568978;-53
2022/06/01 02:38:59;;;;;;;;;11.00;11.00;;;;;12.59;98.44;99438.66;6281519;20;2788823;-59
2022/06/01 02:44:17;;;;;;;;;14.00;13.00;;;;;12.89;98.30;99446.28;6283451;20;2803394;-60
2022/06/01 02:46:45;;;;;;;;;14.00;14.00;;;;;12.85;99.63;99440.28;6282328;20;2808649;-55
2022/06/01 02:49:17;;;;;;;;;16.00;15.00;;;;;12.91;99.18;99445.19;6281550;20;3542937;-54
2022/06/01 02:51:49;;;;;;;;;14.67;14.67;;;;;13.02;98.56;99443.53;6280272;20;3529413;-60
2022/06/01 02:54:17;;;;;;;;;14.50;12.50;;;;;13.25;98.07;99439.09;6284334;20;2616034;-60
2022/06/01 02:56:47;;;;;;;;;16.67;15.00;;;;;13.37;97.89;99439.00;6276640;20;3544112;-59
2022/06/01 02:59:15;;;;;;;;;15.00;15.00;;;;;13.05;99.17;99441.44;6283671;20;2794119;-53
2022/06/01 03:01:44;;;;;;;;;16.00;15.00;;;;;13.10;99.61;99436.56;6280658;20;3539904;-52
2022/06/01 03:04:14;;;;;;;;;20.67;13.00;;;;;13.28;99.17;99436.19;6280601;20;3556572;-60
2022/06/01 03:06:43;;;;;;;;;19.00;16.00;;;;;13.37;98.39;99430.06;6282443;20;3555465;-61
2022/06/01 03:09:32;;;;;;;;;17.33;17.33;;;;;13.17;100.00;99435.13;6280375;20;3552315;-60
2022/06/01 03:12:00;;;;;;;;;17.50;16.00;;;;;13.72;97.41;99437.28;6313919;20;2831496;-54
2022/06/01 03:14:29;;;;;;;;;17.00;13.67;;;;;13.60;97.83;99433.69;6279307;20;3537842;-60
2022/06/01 03:16:58;;;;;;;;;17.50;16.00;;;;;13.65;97.24;99427.94;6309239;20;2489873;-50
2022/06/01 03:19:27;;;;;;;;;19.33;16.33;;;;;13.36;98.62;99428.38;6271054;20;3551327;-51
2022/06/01 03:21:54;;;;;;;;;15.00;15.00;;;;;13.43;98.84;99417.94;6282610;20;2798170;-53
2022/06/01 03:24:23;;;;;;;;;17.00;14.67;;;;;13.47;98.61;99409.50;6279763;20;3549282;-49
2022/06/01 03:26:52;;;;;;;;;14.33;13.00;;;;;13.44;97.14;99407.06;6282573;20;3524267;-60
2022/06/01 03:29:27;;;;;;;;;15.00;14.00;;;;;12.95;97.75;99408.09;6314016;20;3543992;-59
2022/06/01 03:31:55;;;;;;;;;15.00;13.00;;;;;12.96;98.94;99399.91;6315794;20;2807558;-57
2022/06/01 03:34:25;;;;;;;;;13.50;13.50;;;;;13.07;97.78;99393.69;6287804;20;2806518;-60
2022/06/01 03:36:54;;;;;;;;;14.50;14.50;;;;;13.17;97.64;99392.00;6280891;20;2808860;-58
2022/06/01 03:39:21;;;;;;;;;17.00;14.00;;;;;13.22;97.71;99398.88;6314213;20;2811732;-59
2022/06/01 03:41:50;;;;;;;;;19.00;14.00;;;;;13.34;97.03;99406.91;6281724;20;2816924;-58
2022/06/01 03:47:11;;;;;;;;;15.50;15.50;;;;;13.83;96.51;99413.84;6319582;20;2488404;-54
2022/06/01 03:49:39;;;;;;;;;19.00;14.50;;;;;14.09;94.67;99421.72;6246580;20;2819172;-58
2022/06/01 03:52:09;;;;;;;;;18.00;15.00;;;;;13.97;95.04;99422.69;6286082;20;3536740;-52
2022/06/01 03:54:39;;;;;;;;;17.00;16.00;;;;;13.90;95.79;99432.25;6290206;20;2825330;-57
2022/06/01 03:57:08;;;;;;;;;19.67;18.00;;;;;13.95;95.51;99441.69;6287196;20;3558619;-55
2022/06/01 03:59:36;;;;;;;;;20.67;14.67;;;;;14.12;95.93;99444.91;6278036;20;3539861;-55
2022/06/01 04:02:06;;;;;;;;;19.50;17.00;;;;;14.06;97.86;99448.97;6275622;20;2500390;-52
2022/06/01 04:04:35;;;;;;;;;26.00;21.00;;;;;14.07;100.00;99442.56;6282702;20;2487786;-56
2022/06/01 04:07:04;;;;;;;;;26.50;22.50;;;;;14.07;100.00;99445.28;6279724;20;2500239;-58
2022/06/01 04:09:33;;;;;;;;;23.00;21.00;;;;;14.19;100.00;99438.91;6285452;20;2839930;-59
2022/06/01 04:12:02;;;;;;;;;24.00;21.00;;;;;14.19;100.00;99436.19;6284748;20;2841928;-58
2022/06/01 04:14:31;;;;;;;;;21.50;21.00;;;;;14.18;100.00;99441.69;6285932;20;2827401;-58
2022/06/01 04:17:00;;;;;;;;;19.00;19.00;;;;;14.36;100.00;99434.81;6287503;20;2838936;-58
2022/06/01 04:19:28;;;;;;;;;21.50;19.50;;;;;14.38;99.40;99426.59;6286563;20;2839994;-59
2022/06/01 04:21:57;;;;;;;;;21.00;21.00;;;;;14.28;100.00;99416.53;6286268;20;2842076;-59
2022/06/01 04:24:33;;;;;;;;;22.33;20.00;;;;;14.17;100.00;99415.69;6283750;20;3563799;-58
2022/06/01 04:27:01;;;;;;;;;20.50;19.50;;;;;14.18;100.00;99426.34;6284541;20;2500375;-55
2022/06/01 04:29:30;;;;;;;;;23.00;21.00;;;;;14.31;100.00;99433.47;6287146;20;2840897;-54
2022/06/01 04:32:12;;;;;;;;;20.50;20.50;;;;;14.54;100.00;99437.91;6286026;20;2841970;-55
2022/06/01 04:34:41;;;;;;;;;20.50;20.50;;;;;14.68;99.78;99450.25;6284940;20;2835765;-53
2022/06/01 04:37:10;;;;;;;;;18.00;17.50;;;;;14.56;100.00;99505.28;6283214;20;2834120;-50
2022/06/01 04:39:39;;;;;;;;;22.00;18.50;;;;;14.28;100.00;99551.56;6287746;20;2830563;-48
2022/06/01 04:42:08;;;;;;;;;27.00;26.00;;;;;14.40;100.00;99570.47;6287509;20;2854457;-53
2022/06/01 04:44:38;;;;;;;;;31.00;29.33;;;;;14.21;100.00;99577.31;6286474;20;3617085;-51
2022/06/01 04:47:08;;;;;;;;;31.67;31.00;;;;;14.18;100.00;99544.31;6322921;20;3574225;-54
2022/06/01 04:49:38;;;;;;;;;33.33;29.00;;;;;14.11;100.00;99516.91;6285301;20;3606718;-50
2022/06/01 04:52:07;;;;;;;;;31.67;26.67;;;;;14.41;100.00;99531.69;6322583;20;3596226;-48
2022/06/01 04:54:37;;;;;;;;;32.33;26.67;;;;;14.29;100.00;99536.22;6287405;20;3593989;-47
2022/06/01 04:57:07;;;;;;;;;34.75;29.50;;;;;14.21;100.00;99538.66;6321669;20;3611798;-49
2022/06/01 04:59:36;;;;;;;;;36.67;30.67;;;;;14.40;100.00;99532.66;6318939;20;3619058;-48
2022/06/01 05:02:06;;;;;;;;;35.33;28.67;;;;;14.66;100.00;99534.16;6285248;20;3617918;-53
2022/06/01 05:04:35;;;;;;;;;24.33;23.00;;;;;14.92;100.00;99523.06;6318881;20;2860897;-54
2022/06/01 05:07:04;;;;;;;;;31.33;25.67;;;;;15.01;100.00;99537.66;6318533;20;3605505;-55
2022/06/01 05:09:34;;;;;;;;;31.00;28.33;;;;;15.23;100.00;99520.53;6285642;20;3608640;-54
2022/06/01 05:12:03;;;;;;;;;31.50;27.50;;;;;14.97;100.00;99525.38;6317510;20;3481578;-54
2022/06/01 05:14:32;;;;;;;;;30.00;27.00;;;;;14.86;100.00;99523.56;6317713;20;2737756;-56
2022/06/01 05:17:01;;;;;;;;;32.00;28.33;;;;;15.03;100.00;99525.72;6285447;20;3608544;-56
2022/06/01 05:19:34;;;;;;;;;26.00;23.33;;;;;15.00;100.00;99520.56;6318912;20;3594141;-52
2022/06/01 05:22:04;;;;;;;;;29.00;24.33;;;;;14.86;100.00;99501.94;6284250;20;3588800;-55
2022/06/01 05:24:32;;;;;;;;;23.33;23.33;;;;;15.14;100.00;99495.97;6321898;20;3583549;-56
2022/06/01 05:27:01;;;;;;;;;26.00;26.00;;;;;15.12;100.00;99492.53;6286893;20;3596137;-54
2022/06/01 05:29:30;;;;;;;;;28.00;25.50;;;;;15.39;100.00;99493.91;6286980;20;2844018;-55
2022/06/01 05:31:59;;;;;;;;;29.33;27.33;;;;;15.59;100.00;99498.47;6286087;20;2859707;-54
2022/06/01 05:34:28;;;;;;;;;27.67;24.00;;;;;15.62;100.00;99502.75;6320198;20;3575259;-50
2022/06/01 05:36:57;;;;;;;;;30.00;27.33;;;;;15.83;100.00;99508.22;6283086;20;3585662;-51
2022/06/01 05:39:26;;;;;;;;;26.67;24.67;;;;;15.96;100.00;99508.88;6319132;20;3583575;-52
2022/06/01 05:41:56;;;;;;;;;26.00;22.67;;;;;15.73;100.00;99499.16;6283345;20;3583545;-50
2022/06/01 05:44:31;;;;;;;;;23.00;22.00;;;;;15.80;100.00;99503.06;6321952;20;3578403;-55
2022/06/01 05:47:03;;;;;;;;;27.00;25.00;;;;;16.22;100.00;99492.19;6284328;20;3588772;-50
2022/06/01 05:49:32;;;;;;;;;26.50;26.50;;;;;16.77;100.00;99503.56;6315815;20;2847138;-51
2022/06/01 05:52:00;;;;;;;;;24.00;22.00;;;;;17.25;100.00;99497.34;6285416;20;2500282;-50
2022/06/01 05:54:29;;;;;;;;;24.67;23.00;;;;;17.02;100.00;99496.75;6287720;20;2852811;-52
2022/06/01 05:56:58;;;;;;;;;21.67;21.33;;;;;17.90;100.00;99496.75;6319399;20;3571078;-55
2022/06/01 05:59:32;;;;;;;;;24.67;24.00;;;;;18.01;100.00;99491.19;6286194;20;3584587;-50
2022/06/01 06:02:01;;;;;;;;;25.67;22.67;;;;;18.13;100.00;99489.97;6286079;20;3592063;-51
2022/06/01 06:04:29;;;;;;;;;25.00;23.50;;;;;18.18;100.00;99489.53;6285132;20;2844036;-52
2022/06/01 06:06:58;;;;;;;;;27.00;24.00;;;;;18.28;100.00;99489.53;6284532;20;3594007;-51
2022/06/01 06:09:27;;;;;;;;;25.00;23.33;;;;;18.16;100.00;99478.81;6285058;20;2832621;-55
2022/06/01 06:11:56;;;;;;;;;22.00;19.50;;;;;18.19;100.00;99474.94;6317601;20;2837835;-52
2022/06/01 06:14:25;;;;;;;;;37.50;34.00;;;;;18.45;100.00;99480.56;6284525;20;2839903;-52
2022/06/01 06:16:53;;;;;;;;;48.00;37.33;;;;;18.68;100.00;99491.06;6289607;20;3604393;-49
2022/06/01 06:19:23;;;;;;;;;51.33;43.33;;;;;18.70;100.00;99483.63;6284635;20;3624219;-54
2022/06/01 06:21:52;;;;;;;;;52.00;43.00;;;;;19.19;100.00;99487.75;6320228;20;3615849;-55
2022/06/01 06:24:22;;;;;;;;;61.75;46.25;;;;;19.46;100.00;99500.44;6287330;20;4377773;-50
2022/06/01 06:26:51;;;;;;;;;62.67;49.00;;;;;19.24;100.00;99518.06;6318772;20;3604399;-48
2022/06/01 06:29:20;;;;;;;;;55.50;43.75;;;;;19.12;100.00;99523.91;6288299;20;3623273;-53
2022/06/01 06:31:50;;;;;;;;;55.75;43.75;;;;;18.89;100.00;99534.34;6319562;20;4380422;-52
2022/06/01 06:34:18;;;;;;;;;62.00;46.50;;;;;18.55;100.00;99529.47;6316826;20;1913813;-50
2022/06/01 06:36:47;;;;;;;;;63.67;49.67;;;;;18.51;100.00;99528.91;6282600;20;3603353;-49
2022/06/01 06:39:16;;;;;;;;;60.33;48.00;;;;;18.72;100.00;99522.38;6287716;20;3614873;-50
2022/06/01 06:41:44;;;;;;;;;62.00;48.67;;;;;18.46;100.00;99522.19;6286778;20;3596046;-52
2022/06/01 06:44:13;;;;;;;;;65.00;50.67;;;;;18.08;100.00;99522.16;6288005;20;3621155;-53
2022/06/01 06:46:42;;;;;;;;;63.00;49.25;;;;;18.41;100.00;99528.09;6286255;20;3627397;-54
2022/06/01 06:49:10;;;;;;;;;67.00;51.50;;;;;18.00;100.00;99524.75;6314639;20;1920062;-53
2022/06/01 06:51:39;;;;;;;;;70.00;52.00;;;;;18.50;100.00;99521.75;6285159;20;3505514;-51
2022/06/01 06:54:10;;;;;;;;;67.50;51.50;;;;;18.64;100.00;99534.88;6317482;20;3627348;-53
2022/06/01 06:56:39;;;;;;;;;67.00;52.00;;;;;18.77;100.00;99528.25;6318393;20;3604420;-52
2022/06/01 06:59:08;;;;;;;;;64.50;50.00;;;;;18.64;100.00;99539.44;6287207;20;3635669;-50
2022/06/01 07:01:36;;;;;;;;;62.50;49.00;;;;;18.81;100.00;99540.56;6313686;20;1914942;-54
2022/06/01 07:04:05;;;;;;;;;62.67;50.00;;;;;18.59;100.00;99555.38;6287609;20;3614820;-54
2022/06/01 07:06:35;;;;;;;;;64.00;48.75;;;;;18.13;100.00;99552.47;6285808;20;3632604;-53
2022/06/01 07:09:04;;;;;;;;;68.50;51.50;;;;;18.22;100.00;99561.63;6319627;20;3634667;-53
2022/06/01 07:11:34;;;;;;;;;71.75;53.50;;;;;18.38;100.00;99558.31;6317006;20;4388719;-51
2022/06/01 07:14:04;;;;;;;;;70.50;54.75;;;;;18.36;100.00;99574.75;6318925;20;4382469;-52
2022/06/01 07:16:36;;;;;;;;;71.75;57.00;;;;;18.34;100.00;99567.75;6315570;20;3622103;-54
2022/06/01 07:19:08;;;;;;;;;69.25;54.25;;;;;18.30;100.00;99572.63;6324931;20;3630513;-55
2022/06/01 07:21:37;;;;;;;;;71.50;55.00;;;;;18.18;100.00;99561.06;6319303;20;1914072;-52
2022/06/01 07:24:08;;;;;;;;;68.00;51.00;;;;;18.37;100.00;99567.44;6290699;20;2697266;-55
2022/06/01 07:26:44;;;;;;;;;66.50;51.25;;;;;18.28;100.00;99565.63;6324134;20;3640927;-55
2022/06/01 07:29:18;;;;;;;;;67.50;53.00;;;;;18.46;100.00;99574.72;6322338;20;3619078;-48
2022/06/01 07:31:50;;;;;;;;;71.75;54.00;;;;;18.47;100.00;99581.88;6321741;20;4390901;-54
2022/06/01 07:34:20;;;;;;;;;73.00;55.25;;;;;18.45;100.00;99578.44;6322033;20;4390834;-51
2022/06/01 07:36:49;;;;;;;;;69.50;53.25;;;;;18.38;100.00;99585.50;6323628;20;3630568;-55
2022/06/01 07:44:55;;;;;;;;;62.67;50.00;;;;;18.59;100.00;99591.56;6321938;20;3605440;-51
2022/06/01 07:47:24;;;;;;;;;63.00;49.00;;;;;18.41;100.00;99598.78;6291311;20;3617079;-50
2022/06/01 07:50:14;;;;;;;;;71.00;54.00;;;;;18.55;100.00;99590.16;6286962;20;4381461;-55
2022/06/01 07:53:07;;;;;;;;;60.67;48.00;;;;;18.72;100.00;99593.97;6322048;20;3604381;-52
2022/06/01 07:55:37;;;;;;;;;66.33;51.67;;;;;19.79;97.87;99585.19;6288526;20;3618962;-52
2022/06/01 07:58:06;;;;;;;;;58.67;46.33;;;;;20.11;95.30;99594.66;6288407;20;3617934;-56
2022/06/01 08:00:36;;;;;;;;;60.00;47.00;;;;;20.52;93.17;99598.56;6290280;20;3614841;-53
2022/06/01 08:03:15;;;;;;;;;56.00;45.00;;;;;20.63;92.68;99600.19;6320745;20;3610665;-55
2022/06/01 08:05:45;;;;;;;;;51.75;39.25;;;;;19.66;94.22;99593.75;6290463;20;3629474;-57
2022/06/01 08:08:13;;;;;;;;;49.67;40.00;;;;;19.37;94.96;99596.66;6322876;20;3604416;-55
2022/06/01 08:10:42;;;;;;;;;46.33;37.00;;;;;19.60;94.57;99602.53;6291251;20;3599183;-52
2022/06/01 08:13:15;;;;;;;;;44.67;34.67;;;;;19.74;92.56;99604.72;6289580;20;3594437;-56
2022/06/01 08:15:48;;;;;;;;;38.67;33.67;;;;;19.61;93.28;99608.81;6293742;20;3595016;-55
2022/06/01 08:18:22;;;;;;;;;48.00;40.00;;;;;20.12;93.39;99610.88;6291987;20;3592002;-53
2022/06/01 08:20:52;;;;;;;;;40.33;33.67;;;;;20.08;91.41;99616.81;6286454;20;3582553;-55
2022/06/01 08:23:27;;;;;;;;;41.33;34.33;;;;;19.97;92.92;99617.06;6288288;20;3581542;-55
2022/06/01 08:25:56;;;;;;;;;40.33;35.67;;;;;20.20;90.16;99621.00;6320440;20;3588761;-57
2022/06/01 08:28:26;;;;;;;;;51.00;41.33;;;;;21.12;89.51;99621.44;6289274;20;3613811;-53
2022/06/01 08:30:55;;;;;;;;;37.33;34.33;;;;;21.69;82.73;99624.38;6287714;20;3581458;-56
2022/06/01 08:33:24;;;;;;;;;44.00;35.67;;;;;22.54;78.24;99626.84;6292745;20;3598154;-54
2022/06/01 08:35:53;;;;;;;;;33.67;32.00;;;;;22.42;77.56;99630.97;6291764;20;3562755;-57
2022/06/01 08:38:23;;;;;;;;;38.00;33.00;;;;;23.11;75.04;99631.34;6288294;20;3602449;-55
2022/06/01 08:41:03;;;;;;;;;39.33;33.33;;;;;23.29;74.06;99640.19;6321112;20;3577346;-56
2022/06/01 08:43:43;;;;;;;;;32.67;30.67;;;;;23.66;72.17;99639.47;6287403;20;3588800;-57
2022/06/01 08:46:14;;;;;;;;;35.67;32.00;;;;;22.91;74.78;99631.72;6289420;20;3592964;-57
2022/06/01 08:48:52;;;;;;;;;40.67;34.67;;;;;21.82;79.63;99629.34;6288650;20;3587750;-55
2022/06/01 08:51:28;;;;;;;;;45.50;34.25;;;;;21.37;84.54;99619.66;6288792;20;3611708;-56
2022/06/01 08:54:00;;;;;;;;;35.00;32.00;;;;;20.99;83.95;99628.19;6317097;20;3578351;-55
2022/06/01 08:56:47;;;;;;;;;31.33;29.00;;;;;22.21;80.80;99629.59;6319272;20;3599308;-53
2022/06/01 08:59:25;;;;;;;;;29.67;29.00;;;;;23.58;75.27;99633.19;6290073;20;3593047;-56
2022/06/01 09:02:15;;;;;;;;;37.67;31.67;;;;;24.00;73.32;99637.41;6285988;20;3586810;-54
2022/06/01 09:05:18;;;;;;;;;34.00;30.00;;;;;23.74;73.09;99633.13;6291177;20;3605430;-55
2022/06/01 09:08:33;;;;;;;;;27.75;27.75;;;;;23.66;69.86;99630.41;6286987;20;3606559;-56
2022/06/01 09:11:10;;;;;;;;;27.00;25.00;;;;;22.35;77.16;99642.59;6315540;20;3596446;-55
2022/06/01 09:13:58;;;;;;;;;32.00;28.75;;;;;22.37;79.30;99634.19;6289204;20;3609186;-58
2022/06/01 09:16:50;;;;;;;;;33.50;30.00;;;;;22.45;77.62;99647.88;6317315;20;3611677;-56
2022/06/01 09:22:39;;;;;;;;;25.00;21.00;;;;;24.42;66.25;99647.88;6317050;20;3579382;-55
2022/06/01 09:25:19;;;;;;;;;25.00;25.00;;;;;24.77;65.60;99655.66;6319283;20;2835664;-59
2022/06/01 09:27:59;;;;;;;;;25.29;24.00;;;;;24.81;67.39;99654.25;6335464;20;3581626;-58
2022/06/01 09:30:38;;;;;;;;;26.00;24.33;;;;;22.90;72.02;99656.53;6285452;20;3584644;-57
2022/06/01 09:33:27;;;;;;;;;23.00;21.33;;;;;23.45;72.15;99652.94;6289992;20;3568993;-53
2022/06/01 09:36:07;;;;;;;;;22.67;20.67;;;;;23.41;73.24;99657.94;6289537;20;3576308;-59
2022/06/01 09:38:55;;;;;;;;;24.00;23.00;;;;;24.90;66.67;99651.22;6287946;20;3573217;-56
2022/06/01 09:41:27;;;;;;;;;22.00;19.33;;;;;24.06;67.33;99644.91;6290687;20;3579446;-56
2022/06/01 09:44:21;;;;;;;;;22.00;21.67;;;;;24.63;65.57;99649.09;6287644;20;3563885;-56
2022/06/01 09:46:57;;;;;;;;;21.00;21.00;;;;;23.85;70.03;99656.53;6283302;20;3567957;-58
2022/06/01 09:49:33;;;;;;;;;20.67;19.67;;;;;24.83;64.92;99650.28;6288502;20;3567949;-59
2022/06/01 09:52:12;;;;;;;;;22.33;18.00;;;;;24.97;66.12;99654.91;6286257;20;3573195;-59
2022/06/01 09:54:54;;;;;;;;;15.00;15.00;;;;;24.64;65.62;99662.63;6287366;20;3534759;-57
2022/06/01 09:57:38;;;;;;;;;18.00;16.00;;;;;24.30;66.39;99666.69;6315746;20;2835673;-59
2022/06/01 10:06:31;;;;;;;;;11.67;11.67;;;;;24.88;63.30;99664.31;6322822;20;2786837;-57
2022/06/01 10:09:10;;;;;;;;;18.00;16.00;;;;;25.31;64.04;99671.94;6315044;20;3559738;-56
2022/06/01 10:11:46;;;;;;;;;19.00;19.00;;;;;25.75;63.20;99671.00;6284477;20;3571075;-54
2022/06/01 10:14:34;;;;;;;;;17.00;14.00;;;;;25.15;61.91;99664.69;6281029;20;2810671;-57
2022/06/01 10:17:33;;;;;;;;;17.00;14.50;;;;;24.94;63.33;99659.94;6284440;20;2807628;-55
2022/06/01 10:20:45;;;;;;;;;17.67;17.67;;;;;25.11;64.90;99655.97;6283573;20;3563908;-59
2022/06/01 10:23:34;;;;;;;;;16.50;14.50;;;;;25.55;61.49;99668.00;6285917;20;2815032;-59
2022/06/01 10:26:34;;;;;;;;;17.00;14.50;;;;;25.42;63.38;99667.84;6283043;20;2815215;-57
2022/06/01 10:29:15;;;;;;;;;18.67;15.00;;;;;24.81;64.44;99668.84;6286475;20;3546185;-59
2022/06/01 10:31:55;;;;;;;;;11.00;11.00;;;;;25.11;62.25;99664.19;6281706;20;3550252;-55
2022/06/01 10:34:47;;;;;;;;;17.33;16.67;;;;;25.83;62.28;99680.00;6265594;20;3568025;-59
2022/06/01 10:41:29;;;;;;;;;12.33;12.33;;;;;25.17;62.64;99663.50;6302697;20;2802404;-59
2022/06/01 10:45:26;;;;;;;;;15.67;13.33;;;;;24.35;67.50;99662.53;6312338;20;2483637;-57
2022/06/01 10:48:12;;;;;;;;;10.00;10.00;;;;;25.66;61.35;99677.66;6315772;20;2783603;-57
2022/06/01 10:51:14;;;;;;;;;10.67;9.33;;;;;25.80;59.34;99680.41;6302633;20;3508615;-60
2022/06/01 10:53:58;;;;;;;;;11.00;10.00;;;;;25.94;59.40;99683.34;6305506;20;3504458;-59
2022/06/01 10:56:27;;;;;;;;;9.00;8.00;;;;;26.28;57.39;99679.88;6318350;20;2746101;-60
2022/06/01 10:59:04;;;;;;;;;11.00;9.00;;;;;26.35;56.44;99682.69;6319081;20;2761911;-60
2022/06/01 11:02:01;;;;;;;;;8.00;8.00;;;;;26.11;59.02;99676.50;6310970;20;2746149;-60
2022/06/01 11:05:48;;;;;;;;;9.00;9.00;;;;;25.93;57.17;99678.84;6312246;20;2753401;-59
2022/06/01 11:08:48;;;;;;;;;10.33;9.00;;;;;26.03;56.82;99680.25;6311555;20;2762757;-59
2022/06/01 11:12:01;;;;;;;;;9.33;8.00;;;;;26.31;57.31;99671.22;6309422;20;2758754;-59
2022/06/01 11:14:59;;;;;;;;;7.33;7.33;;;;;26.15;56.86;99668.75;6316309;20;2734633;-59
2022/06/01 11:17:56;;;;;;;;;7.00;7.00;;;;;26.36;54.85;99670.66;6342535;20;2743988;-59
2022/06/01 11:21:12;;;;;;;;;7.67;7.67;;;;;26.40;56.11;99678.28;6285665;20;2739840;-59
2022/06/01 11:24:12;;;;;;;;;9.33;9.33;;;;;26.53;58.22;99676.75;6318079;20;2771153;-59
2022/06/01 11:27:09;;;;;;;;;7.00;7.00;;;;;26.27;55.22;99670.75;6314171;20;2748231;-59
2022/06/01 11:30:10;;;;;;;;;9.00;7.33;;;;;26.01;57.25;99675.97;6316582;20;2746071;-59
2022/06/01 11:32:59;;;;;;;;;8.33;7.00;;;;;25.96;53.81;99675.72;6315939;20;2733570;-60
2022/06/01 11:35:50;;;;;;;;;8.00;8.00;;;;;26.00;54.11;99671.53;6317330;20;2739854;-59
2022/06/01 11:38:37;;;;;;;;;7.00;7.00;;;;;26.63;53.57;99669.00;6312526;20;2748176;-59
2022/06/01 11:41:33;;;;;;;;;8.00;8.00;;;;;26.03;55.89;99672.00;6312489;20;2748649;-58
2022/06/01 11:44:16;;;;;;;;;8.00;6.33;;;;;26.24;53.73;99682.16;6315731;20;2738787;-59
2022/06/01 11:47:12;;;;;;;;;6.33;5.33;;;;;26.52;51.88;99675.91;6316626;20;2731497;-59
2022/06/01 11:50:24;;;;;;;;;8.00;8.00;;;;;26.70;53.62;99669.91;6313222;20;2735662;-60
2022/06/01 11:53:09;;;;;;;;;8.67;8.00;;;;;26.58;55.19;99668.75;6315881;20;2750301;-59
2022/06/01 11:55:37;;;;;;;;;8.00;8.00;;;;;26.85;52.08;99678.91;6314703;20;2735685;-59
2022/06/01 11:58:12;;;;;;;;;7.00;7.00;;;;;26.41;54.04;99676.38;6317015;20;2740913;-58
2022/06/01 12:00:54;;;;;;;;;7.33;7.33;;;;;25.55;56.69;99671.59;6314755;20;2737740;-59
2022/06/01 12:03:25;;;;;;;;;6.67;6.67;;;;;26.71;53.54;99671.59;6319041;20;2741996;-59
2022/06/01 12:06:07;;;;;;;;;5.00;5.00;;;;;26.67;52.50;99662.91;6323578;20;2742987;-59
2022/06/01 12:09:03;;;;;;;;;6.00;6.00;;;;;26.49;52.20;99668.00;6321183;20;2736794;-59
2022/06/01 12:11:40;;;;;;;;;7.33;7.33;;;;;26.99;53.16;99667.97;6323768;20;2756490;-59
2022/06/01 12:14:41;;;;;;;;;6.00;6.00;;;;;27.33;52.14;99664.41;6322947;20;2750331;-59